Time;durP1;ratioP1;P1;durP2;ratioP2;P2;SDS_P1;SDS_P2;PMS_P1;PMS_P2;Temp;Humidity;BMP_temperature;BMP_pressure;BME280_temperature;BME280_humidity;BME280_pressure;Samples;Min_cycle;Max_cycle;Signal;HPM_P1;HPM_P2
2021/09/22 00:02:09;;;;;;;0.30;0.20;;;13.60;99.90;;;;;;4993201;28;20796;-64
2021/09/22 00:04:35;;;;;;;0.30;0.20;;;13.60;99.90;;;;;;4993991;28;20607;-64
2021/09/22 00:07:01;;;;;;;0.30;0.10;;;13.60;99.90;;;;;;4997019;28;20219;-63
2021/09/22 00:09:27;;;;;;;2.23;2.03;;;13.60;99.90;;;;;;4997911;28;20430;-64
2021/09/22 00:11:53;;;;;;;0.30;0.17;;;13.50;99.90;;;;;;4997920;28;20175;-64
2021/09/22 00:14:18;;;;;;;0.30;0.20;;;13.50;99.90;;;;;;4997921;28;20201;-64
2021/09/22 00:16:44;;;;;;;0.30;0.20;;;13.50;99.90;;;;;;4997871;28;20541;-64
2021/09/22 00:19:09;;;;;;;0.30;0.20;;;13.50;99.90;;;;;;4997757;28;20179;-66
2021/09/22 00:21:35;;;;;;;0.30;0.20;;;13.50;99.90;;;;;;4997861;28;20179;-68
2021/09/22 00:24:01;;;;;;;0.30;0.20;;;13.50;99.90;;;;;;4997646;28;20213;-68
2021/09/22 00:26:27;;;;;;;0.80;0.32;;;13.50;99.90;;;;;;4996590;28;20194;-65
2021/09/22 00:28:53;;;;;;;0.30;0.20;;;13.50;99.90;;;;;;4997430;28;20179;-62
2021/09/22 00:31:19;;;;;;;0.30;0.20;;;13.30;99.90;;;;;;4997632;28;20763;-62
2021/09/22 00:33:44;;;;;;;0.40;0.30;;;13.20;99.90;;;;;;4997592;28;20187;-63
2021/09/22 00:36:10;;;;;;;0.30;0.10;;;13.20;99.90;;;;;;4996644;28;20221;-63
2021/09/22 00:38:36;;;;;;;0.30;0.20;;;13.20;99.90;;;;;;4997615;28;20178;-63
2021/09/22 00:41:02;;;;;;;0.30;0.20;;;13.20;99.90;;;;;;4997394;28;20183;-64
2021/09/22 00:43:27;;;;;;;0.50;0.20;;;13.40;99.90;;;;;;4997324;28;20221;-63
2021/09/22 00:45:53;;;;;;;0.30;0.20;;;13.30;99.90;;;;;;4997380;28;20183;-63
2021/09/22 00:48:19;;;;;;;0.40;0.30;;;13.30;99.90;;;;;;4997033;28;20497;-63
2021/09/22 00:50:47;;;;;;;0.30;0.20;;;13.30;99.90;;;;;;4997267;28;20643;-64
2021/09/22 00:53:13;;;;;;;0.30;0.10;;;13.20;99.90;;;;;;4997170;28;20425;-65
2021/09/22 00:55:40;;;;;;;0.30;0.10;;;13.40;99.90;;;;;;4997362;28;20512;-65
2021/09/22 00:58:08;;;;;;;0.30;0.20;;;13.40;99.90;;;;;;4996983;28;20179;-65
2021/09/22 01:00:37;;;;;;;0.30;0.25;;;13.40;99.90;;;;;;4997289;28;20226;-65
2021/09/22 01:03:06;;;;;;;0.30;0.20;;;13.20;99.90;;;;;;4997196;28;20258;-65
2021/09/22 01:05:32;;;;;;;0.50;0.45;;;13.00;99.90;;;;;;4997239;28;20198;-65
2021/09/22 01:07:58;;;;;;;0.30;0.10;;;12.90;99.90;;;;;;4996913;28;20175;-64
2021/09/22 01:10:24;;;;;;;0.30;0.20;;;12.90;99.90;;;;;;4997080;28;20166;-64
2021/09/22 01:12:50;;;;;;;0.30;0.10;;;12.90;99.90;;;;;;4996974;28;20254;-64
2021/09/22 01:15:45;;;;;;;0.30;0.20;;;13.00;99.90;;;;;;4997239;28;20194;-64
2021/09/22 01:18:16;;;;;;;0.30;0.20;;;13.10;99.90;;;;;;4992224;28;20214;-65
2021/09/22 01:20:46;;;;;;;0.30;0.20;;;13.00;99.90;;;;;;4996749;28;20620;-64
2021/09/22 01:23:12;;;;;;;0.30;0.20;;;13.00;99.90;;;;;;4996689;28;20194;-64
2021/09/22 01:25:41;;;;;;;0.87;0.47;;;13.10;99.90;;;;;;4996793;28;20183;-64
2021/09/22 01:28:07;;;;;;;0.30;0.20;;;13.10;99.90;;;;;;4996427;28;20454;-64
2021/09/22 01:30:33;;;;;;;0.30;0.15;;;13.10;99.90;;;;;;4996830;28;20617;-64
2021/09/22 01:33:05;;;;;;;0.30;0.10;;;13.00;99.90;;;;;;4996948;28;20193;-64
2021/09/22 01:35:39;;;;;;;0.30;0.20;;;13.10;99.90;;;;;;4997369;28;20241;-64
2021/09/22 01:38:07;;;;;;;0.30;0.17;;;13.10;99.90;;;;;;4997484;28;20187;-64
2021/09/22 01:40:33;;;;;;;0.30;0.17;;;13.10;99.90;;;;;;4996846;28;20179;-64
2021/09/22 01:43:00;;;;;;;0.30;0.20;;;13.00;99.90;;;;;;4996590;28;20194;-65
2021/09/22 01:45:25;;;;;;;0.30;0.10;;;13.00;99.90;;;;;;4996223;28;20561;-65
2021/09/22 01:47:51;;;;;;;0.30;0.27;;;12.90;99.90;;;;;;4996188;28;20172;-65
2021/09/22 01:50:19;;;;;;;0.30;0.20;;;13.00;99.90;;;;;;4995927;28;20543;-65
2021/09/22 01:52:49;;;;;;;0.30;0.20;;;13.10;99.90;;;;;;4996545;28;20179;-65
2021/09/22 01:55:17;;;;;;;0.30;0.20;;;13.10;99.90;;;;;;4996141;28;20175;-65
2021/09/22 01:57:43;;;;;;;0.30;0.10;;;13.10;99.90;;;;;;4996047;28;20190;-65
2021/09/22 02:00:09;;;;;;;0.30;0.20;;;13.20;99.90;;;;;;4995883;28;20179;-65
2021/09/22 02:02:35;;;;;;;0.30;0.20;;;13.10;99.90;;;;;;4996114;28;20262;-65
2021/09/22 02:05:01;;;;;;;0.30;0.20;;;13.10;99.90;;;;;;4994891;28;20747;-65
2021/09/22 02:07:28;;;;;;;0.30;0.20;;;13.10;99.90;;;;;;4995873;28;20423;-65
2021/09/22 02:09:54;;;;;;;0.30;0.20;;;13.10;99.90;;;;;;4995592;28;20489;-65
2021/09/22 02:12:20;;;;;;;0.30;0.20;;;13.10;99.90;;;;;;4995850;28;20183;-65
2021/09/22 02:14:45;;;;;;;0.30;0.20;;;13.10;99.90;;;;;;4995816;28;20202;-65
2021/09/22 02:17:11;;;;;;;0.30;0.20;;;13.00;99.90;;;;;;4995720;28;20175;-65
2021/09/22 02:19:37;;;;;;;0.30;0.10;;;13.10;99.90;;;;;;4995688;28;20179;-65
2021/09/22 02:22:03;;;;;;;0.30;0.10;;;13.00;99.90;;;;;;4995625;28;20465;-65
2021/09/22 02:24:28;;;;;;;0.30;0.20;;;13.10;99.90;;;;;;4995426;28;20203;-65
2021/09/22 02:26:54;;;;;;;0.30;0.10;;;13.20;99.90;;;;;;4995241;28;20238;-65
2021/09/22 02:29:20;;;;;;;0.30;0.20;;;13.30;99.90;;;;;;4994744;28;20175;-65
2021/09/22 02:31:48;;;;;;;0.30;0.10;;;13.40;99.90;;;;;;4995396;28;20175;-65
2021/09/22 02:34:14;;;;;;;0.30;0.10;;;13.60;99.90;;;;;;4995540;28;20512;-65
2021/09/22 02:36:41;;;;;;;0.30;0.20;;;13.60;99.90;;;;;;4995255;28;20493;-65
2021/09/22 02:39:07;;;;;;;0.30;0.20;;;13.40;99.90;;;;;;4995068;28;20179;-65
2021/09/22 02:41:33;;;;;;;0.30;0.10;;;13.30;99.90;;;;;;4995116;28;20628;-65
2021/09/22 02:44:00;;;;;;;1.27;1.27;;;13.20;99.90;;;;;;4995421;28;20221;-65
2021/09/22 02:46:27;;;;;;;0.30;0.20;;;13.20;99.90;;;;;;4995021;28;20907;-65
2021/09/22 02:48:52;;;;;;;0.30;0.20;;;13.20;99.90;;;;;;4994891;28;20248;-65
2021/09/22 02:51:18;;;;;;;0.30;0.20;;;13.20;99.90;;;;;;4995125;28;20191;-65
2021/09/22 02:53:43;;;;;;;0.30;0.17;;;13.30;99.90;;;;;;4995045;28;20187;-68
2021/09/22 02:56:09;;;;;;;0.30;0.10;;;13.40;99.90;;;;;;4994804;28;20249;-67
2021/09/22 02:58:34;;;;;;;0.30;0.20;;;13.40;99.90;;;;;;4993664;28;20202;-65
2021/09/22 03:01:00;;;;;;;0.30;0.10;;;13.40;99.90;;;;;;4995220;28;20686;-68
2021/09/22 03:03:27;;;;;;;0.30;0.10;;;13.30;99.90;;;;;;4994865;28;20221;-68
2021/09/22 03:05:53;;;;;;;0.30;0.20;;;13.40;99.90;;;;;;4995151;28;20249;-68
2021/09/22 03:08:18;;;;;;;0.30;0.20;;;13.50;99.90;;;;;;4994827;28;20175;-70
2021/09/22 03:10:44;;;;;;;0.30;0.20;;;13.60;99.90;;;;;;4994774;28;20541;-68
2021/09/22 03:13:10;;;;;;;0.30;0.20;;;13.60;99.90;;;;;;4995124;28;20186;-68
2021/09/22 03:15:36;;;;;;;0.30;0.10;;;13.50;99.90;;;;;;4994860;28;20190;-68
2021/09/22 03:18:01;;;;;;;0.30;0.10;;;13.60;99.90;;;;;;4994656;28;20179;-69
2021/09/22 03:20:27;;;;;;;0.30;0.17;;;13.60;99.90;;;;;;4994747;28;20183;-66
2021/09/22 03:22:52;;;;;;;0.30;0.20;;;13.60;99.90;;;;;;4994675;28;20175;-65
2021/09/22 03:25:18;;;;;;;0.30;0.10;;;13.60;99.90;;;;;;4994448;28;20218;-65
2021/09/22 03:27:44;;;;;;;0.30;0.20;;;13.60;99.90;;;;;;4994306;28;20175;-64
2021/09/22 03:30:11;;;;;;;0.30;0.20;;;13.60;99.90;;;;;;4994331;28;20650;-64
2021/09/22 03:32:37;;;;;;;0.30;0.10;;;13.70;99.90;;;;;;4994301;28;20537;-64
2021/09/22 03:35:03;;;;;;;0.30;0.20;;;13.60;99.90;;;;;;4994301;28;20707;-64
2021/09/22 03:37:29;;;;;;;0.30;0.10;;;13.60;99.90;;;;;;4994409;28;20426;-64
2021/09/22 03:39:55;;;;;;;0.30;0.20;;;13.50;99.90;;;;;;4993139;28;20277;-64
2021/09/22 03:42:20;;;;;;;0.30;0.10;;;13.60;99.90;;;;;;4994210;28;20624;-65
2021/09/22 03:44:46;;;;;;;0.30;0.20;;;13.60;99.90;;;;;;4993174;28;20215;-64
2021/09/22 03:47:12;;;;;;;0.30;0.20;;;13.50;99.90;;;;;;4994570;28;20178;-64
2021/09/22 03:49:37;;;;;;;0.30;0.10;;;13.60;99.90;;;;;;4993973;28;20265;-65
2021/09/22 03:52:03;;;;;;;0.30;0.10;;;13.60;99.90;;;;;;4994264;28;20183;-64
2021/09/22 03:54:29;;;;;;;0.30;0.20;;;13.50;99.90;;;;;;4994135;28;20204;-65
2021/09/22 03:56:54;;;;;;;0.30;0.20;;;13.40;99.90;;;;;;4994046;28;20426;-65
2021/09/22 03:59:20;;;;;;;0.30;0.20;;;13.40;99.90;;;;;;4994140;28;20194;-65
2021/09/22 04:01:46;;;;;;;0.30;0.20;;;13.40;99.90;;;;;;4992163;28;20187;-65
2021/09/22 04:04:11;;;;;;;0.30;0.20;;;13.50;99.90;;;;;;4994537;28;20206;-66
2021/09/22 04:06:38;;;;;;;0.30;0.20;;;13.60;99.90;;;;;;4994302;28;20206;-65
2021/09/22 04:09:04;;;;;;;0.30;0.10;;;13.80;99.90;;;;;;4994990;28;20430;-66
2021/09/22 04:11:30;;;;;;;0.30;0.20;;;13.80;99.90;;;;;;4993837;28;20193;-66
2021/09/22 04:13:59;;;;;;;0.30;0.20;;;13.70;99.90;;;;;;4994189;28;20178;-68
2021/09/22 04:16:25;;;;;;;0.30;0.10;;;13.60;99.90;;;;;;4993137;28;20444;-68
2021/09/22 04:18:51;;;;;;;0.30;0.10;;;13.40;99.90;;;;;;4993791;28;20266;-68
2021/09/22 04:21:17;;;;;;;0.30;0.10;;;13.60;99.90;;;;;;4994337;28;20652;-68
2021/09/22 04:23:42;;;;;;;0.30;0.20;;;13.70;99.90;;;;;;4993465;28;20552;-64
2021/09/22 04:26:08;;;;;;;0.30;0.13;;;13.70;99.90;;;;;;4994532;28;20262;-65
2021/09/22 04:28:33;;;;;;;0.50;0.50;;;13.70;99.90;;;;;;4994766;28;20233;-66
2021/09/22 04:30:59;;;;;;;0.30;0.20;;;13.60;99.90;;;;;;4994188;28;20585;-66
2021/09/22 04:33:24;;;;;;;0.30;0.20;;;13.80;99.90;;;;;;4994212;28;20637;-66
2021/09/22 04:35:52;;;;;;;0.30;0.20;;;13.90;99.90;;;;;;4993933;28;20176;-66
2021/09/22 04:38:18;;;;;;;0.30;0.20;;;13.90;99.90;;;;;;4994287;28;20537;-65
2021/09/22 04:40:43;;;;;;;0.30;0.10;;;13.80;99.90;;;;;;4994132;28;20179;-65
2021/09/22 04:43:09;;;;;;;0.30;0.10;;;13.80;99.90;;;;;;4994035;28;20175;-65
2021/09/22 04:45:36;;;;;;;0.30;0.20;;;13.70;99.90;;;;;;4993953;28;20221;-64
2021/09/22 04:48:02;;;;;;;0.50;0.50;;;13.60;99.90;;;;;;4993736;28;20241;-64
2021/09/22 04:50:28;;;;;;;0.30;0.20;;;13.50;99.90;;;;;;4993341;28;20210;-65
2021/09/22 04:52:55;;;;;;;0.30;0.20;;;13.40;99.90;;;;;;4996399;28;20513;-63
2021/09/22 04:55:20;;;;;;;0.30;0.20;;;13.40;99.90;;;;;;4996281;28;20628;-64
2021/09/22 04:57:46;;;;;;;0.30;0.20;;;13.50;99.90;;;;;;4997443;28;20246;-65
2021/09/22 05:00:12;;;;;;;0.30;0.20;;;13.50;99.90;;;;;;4997238;28;20183;-66
2021/09/22 05:02:38;;;;;;;0.30;0.20;;;13.50;99.90;;;;;;4996579;28;20532;-64
2021/09/22 05:05:04;;;;;;;0.30;0.20;;;13.40;99.90;;;;;;4995884;28;20213;-66
2021/09/22 05:07:29;;;;;;;0.30;0.10;;;13.40;99.90;;;;;;4997003;28;20899;-65
2021/09/22 05:09:55;;;;;;;0.30;0.20;;;13.40;99.90;;;;;;4996558;28;20484;-65
2021/09/22 05:12:20;;;;;;;0.30;0.10;;;13.50;99.90;;;;;;4996876;28;20190;-64
2021/09/22 05:14:46;;;;;;;0.30;0.20;;;13.50;99.90;;;;;;4996707;28;20632;-64
2021/09/22 05:17:11;;;;;;;0.30;0.20;;;13.40;99.90;;;;;;4995677;28;20635;-64
2021/09/22 05:19:37;;;;;;;0.30;0.17;;;13.40;99.90;;;;;;4996822;28;20214;-65
2021/09/22 05:22:03;;;;;;;0.30;0.20;;;13.50;99.90;;;;;;4997290;28;20183;-67
2021/09/22 05:24:29;;;;;;;0.30;0.20;;;13.50;99.90;;;;;;4996961;28;20572;-67
2021/09/22 05:26:55;;;;;;;0.30;0.20;;;13.40;99.90;;;;;;4996898;28;20183;-65
2021/09/22 05:29:21;;;;;;;0.30;0.13;;;13.40;99.90;;;;;;4996691;28;20182;-65
2021/09/22 05:31:47;;;;;;;0.30;0.20;;;13.50;99.90;;;;;;4995556;28;20183;-67
2021/09/22 05:34:12;;;;;;;0.30;0.20;;;13.60;99.90;;;;;;4996463;28;20190;-65
2021/09/22 05:36:38;;;;;;;0.30;0.20;;;13.60;99.90;;;;;;4996521;28;20520;-64
2021/09/22 05:39:05;;;;;;;0.30;0.10;;;13.70;99.90;;;;;;4996256;28;20189;-65
2021/09/22 05:41:31;;;;;;;1.25;1.13;;;13.80;99.90;;;;;;4996259;28;20179;-65
2021/09/22 05:43:57;;;;;;;0.30;0.13;;;13.90;99.90;;;;;;4996620;28;20217;-64
2021/09/22 05:46:22;;;;;;;0.30;0.20;;;13.90;99.90;;;;;;4995166;28;20512;-65
2021/09/22 05:48:48;;;;;;;0.30;0.20;;;14.00;99.90;;;;;;4995851;28;20645;-65
2021/09/22 05:51:14;;;;;;;0.53;0.53;;;13.90;99.90;;;;;;4996170;28;20569;-65
2021/09/22 05:53:42;;;;;;;0.30;0.20;;;14.00;99.90;;;;;;4996098;28;20186;-65
2021/09/22 05:56:08;;;;;;;0.30;0.30;;;14.00;99.90;;;;;;4995988;28;20433;-65
2021/09/22 05:58:34;;;;;;;0.30;0.20;;;14.10;99.90;;;;;;4995658;28;20179;-65
2021/09/22 06:00:59;;;;;;;0.30;0.20;;;14.30;99.90;;;;;;4996594;28;20214;-65
2021/09/22 06:03:25;;;;;;;0.30;0.20;;;14.50;99.90;;;;;;4995180;28;20182;-66
2021/09/22 06:05:51;;;;;;;0.30;0.10;;;14.60;99.90;;;;;;4995172;28;20199;-66
2021/09/22 06:08:16;;;;;;;0.30;0.20;;;14.70;99.90;;;;;;4995058;28;20253;-66
2021/09/22 06:10:44;;;;;;;0.53;0.53;;;14.80;99.90;;;;;;4996255;28;20764;-66
2021/09/22 06:13:10;;;;;;;0.30;0.20;;;15.00;99.90;;;;;;4996650;28;20183;-66
2021/09/22 06:15:35;;;;;;;0.30;0.20;;;15.20;99.90;;;;;;4996484;28;20508;-66
2021/09/22 06:18:01;;;;;;;0.30;0.20;;;15.40;99.90;;;;;;4996010;28;20623;-66
2021/09/22 06:20:27;;;;;;;0.30;0.20;;;15.70;99.90;;;;;;4996082;28;20190;-66
2021/09/22 06:22:52;;;;;;;0.30;0.20;;;16.10;99.90;;;;;;4996272;28;20195;-66
2021/09/22 06:25:18;;;;;;;0.37;0.20;;;16.60;99.90;;;;;;4995771;28;20222;-66
2021/09/22 06:27:44;;;;;;;0.57;0.57;;;17.00;38.30;;;;;;4996086;28;20182;-66
2021/09/22 06:30:11;;;;;;;0.30;0.10;;;17.30;1.00;;;;;;4996479;28;20193;-66
2021/09/22 06:32:38;;;;;;;3.88;3.60;;;17.50;1.00;;;;;;4996151;28;20758;-66
2021/09/22 06:35:05;;;;;;;0.40;0.32;;;17.40;1.00;;;;;;4996686;28;20545;-66
2021/09/22 06:37:30;;;;;;;0.30;0.20;;;17.30;1.00;;;;;;4995391;28;20520;-66
2021/09/22 06:39:56;;;;;;;0.30;0.20;;;17.00;1.00;;;;;;4993573;28;20465;-66
2021/09/22 06:42:21;;;;;;;0.37;0.20;;;16.80;1.00;;;;;;5012691;28;20206;-66
2021/09/22 06:44:47;;;;;;;0.30;0.20;;;17.00;1.00;;;;;;5014254;28;20214;-67
2021/09/22 06:47:12;;;;;;;0.40;0.20;;;17.20;1.00;;;;;;5015686;28;20554;-66
2021/09/22 06:49:38;;;;;;;0.40;0.20;;;17.70;1.00;;;;;;5016825;28;20201;-67
2021/09/22 06:52:04;;;;;;;0.40;0.10;;;17.70;1.00;;;;;;5017323;28;20178;-66
2021/09/22 06:54:29;;;;;;;0.40;0.10;;;17.90;1.00;;;;;;5016839;28;20233;-65
2021/09/22 06:56:55;;;;;;;0.40;0.20;;;17.80;1.00;;;;;;5015983;28;20881;-66
2021/09/22 06:59:21;;;;;;;0.40;0.20;;;17.90;1.00;;;;;;5021624;28;20665;-66
2021/09/22 07:01:46;;;;;;;1.13;1.13;;;18.10;1.00;;;;;;5017522;28;20174;-66
2021/09/22 07:04:12;;;;;;;0.40;0.30;;;18.30;99.90;;;;;;5014887;28;20202;-67
2021/09/22 07:06:38;;;;;;;1.20;1.13;;;18.00;99.90;;;;;;5014641;28;20179;-67
2021/09/22 07:09:04;;;;;;;0.40;0.20;;;18.10;99.90;;;;;;5015217;28;20184;-68
2021/09/22 07:11:29;;;;;;;0.40;0.20;;;18.20;99.90;;;;;;5015134;28;20182;-67
2021/09/22 07:13:55;;;;;;;0.40;0.20;;;17.80;99.90;;;;;;5013390;28;20433;-68
2021/09/22 07:16:20;;;;;;;0.40;0.20;;;17.70;1.00;;;;;;5014053;28;20209;-68
2021/09/22 07:18:46;;;;;;;0.40;0.20;;;17.80;1.00;;;;;;5014290;28;20193;-68
2021/09/22 07:21:13;;;;;;;0.40;0.10;;;17.70;1.00;;;;;;5014354;28;20183;-67
2021/09/22 07:23:39;;;;;;;0.40;0.20;;;17.70;1.00;;;;;;5014180;28;20261;-68
2021/09/22 07:26:06;;;;;;;0.40;0.20;;;17.80;1.00;;;;;;5014145;28;20512;-68
2021/09/22 07:28:33;;;;;;;0.40;0.20;;;17.60;1.00;;;;;;5013826;28;20453;-67
2021/09/22 07:30:59;;;;;;;0.40;0.20;;;17.40;1.00;;;;;;5013945;28;20429;-68
2021/09/22 07:33:25;;;;;;;0.40;0.10;;;17.50;1.00;;;;;;5014274;28;20924;-68
2021/09/22 07:35:51;;;;;;;0.40;0.20;;;17.50;1.00;;;;;;5014978;28;20619;-68
2021/09/22 07:38:17;;;;;;;0.40;0.20;;;17.50;1.00;;;;;;5014135;28;20425;-69
2021/09/22 07:40:43;;;;;;;0.40;0.20;;;17.50;1.00;;;;;;5014335;28;20429;-68
2021/09/22 07:43:09;;;;;;;0.40;0.10;;;17.70;1.00;;;;;;5013659;28;20459;-68
2021/09/22 07:45:35;;;;;;;0.60;0.57;;;17.80;1.00;;;;;;5015845;28;20530;-66
2021/09/22 07:48:01;;;;;;;0.40;0.10;;;17.70;1.00;;;;;;5015244;28;20429;-66
2021/09/22 07:50:27;;;;;;;0.40;0.20;;;17.60;1.00;;;;;;4992934;28;20858;-66
2021/09/22 07:52:53;;;;;;;0.50;0.50;;;17.40;1.00;;;;;;4975990;28;20435;-66
2021/09/22 07:55:19;;;;;;;0.40;0.20;;;17.50;1.00;;;;;;4976032;28;20446;-66
2021/09/22 07:57:47;;;;;;;0.40;0.23;;;17.40;1.00;;;;;;4977341;28;20435;-66
2021/09/22 08:00:26;;;;;;;0.40;0.20;;;17.50;19.30;;;;;;4976262;28;20184;-66
2021/09/22 08:02:58;;;;;;;0.87;0.40;;;17.80;1.00;;;;;;4977366;28;20433;-67
2021/09/22 08:05:24;;;;;;;1.13;1.13;;;17.50;1.00;;;;;;4977090;28;20943;-66
2021/09/22 08:07:49;;;;;;;0.40;0.10;;;17.10;38.90;;;;;;4977182;28;20466;-66
2021/09/22 08:10:16;;;;;;;0.40;0.30;;;17.00;99.90;;;;;;4978166;28;21121;-68
2021/09/22 08:12:42;;;;;;;0.40;0.10;;;17.00;99.90;;;;;;4975144;28;20187;-65
2021/09/22 08:15:09;;;;;;;0.43;0.20;;;17.10;99.90;;;;;;4976246;28;20437;-65
2021/09/22 08:17:35;;;;;;;0.40;0.20;;;17.30;99.90;;;;;;4976194;28;20810;-65
2021/09/22 08:20:01;;;;;;;0.40;0.20;;;17.60;50.10;;;;;;4975414;28;20453;-66
2021/09/22 08:22:27;;;;;;;0.60;0.30;;;17.50;51.90;;;;;;4959188;28;20746;-65
2021/09/22 08:24:52;;;;;;;0.50;0.40;;;17.40;44.50;;;;;;4977912;28;20478;-66
2021/09/22 08:27:18;;;;;;;0.40;0.20;;;17.50;32.10;;;;;;4986876;28;20186;-66
2021/09/22 08:29:43;;;;;;;0.40;0.20;;;17.50;28.20;;;;;;4990182;28;20175;-68
2021/09/22 08:32:09;;;;;;;0.47;0.10;;;17.70;1.00;;;;;;4983776;28;20183;-66
2021/09/22 08:34:35;;;;;;;0.40;0.20;;;17.80;1.00;;;;;;4980080;28;20238;-69
2021/09/22 08:37:00;;;;;;;1.70;0.77;;;17.90;1.00;;;;;;4978069;28;20445;-69
2021/09/22 08:39:33;;;;;;;0.40;0.20;;;17.90;1.00;;;;;;4977874;28;20271;-68
2021/09/22 08:42:00;;;;;;;0.80;0.57;;;17.80;1.00;;;;;;4978323;28;20184;-69
2021/09/22 08:44:26;;;;;;;0.63;0.63;;;18.00;1.00;;;;;;4977935;28;20553;-68
2021/09/22 08:46:52;;;;;;;0.40;0.20;;;18.10;1.00;;;;;;4977952;28;20510;-66
2021/09/22 08:49:17;;;;;;;0.70;0.50;;;18.30;1.00;;;;;;4990888;28;20485;-65
2021/09/22 08:51:44;;;;;;;1.27;0.43;;;18.30;1.00;;;;;;4997432;28;20194;-65
2021/09/22 08:54:10;;;;;;;0.60;0.30;;;18.20;1.00;;;;;;4998311;28;20183;-65
2021/09/22 08:56:38;;;;;;;0.80;0.50;;;18.10;1.00;;;;;;4997709;28;20436;-65
2021/09/22 08:59:05;;;;;;;0.40;0.20;;;18.00;1.00;;;;;;4992071;28;20446;-66
2021/09/22 09:01:31;;;;;;;0.40;0.20;;;18.10;1.00;;;;;;4976739;28;20496;-66
2021/09/22 09:03:57;;;;;;;0.40;0.20;;;18.30;1.00;;;;;;4977696;28;20470;-69
2021/09/22 09:06:34;;;;;;;0.40;0.20;;;18.20;1.00;;;;;;4977069;28;20184;-69
2021/09/22 09:09:01;;;;;;;0.47;0.27;;;18.20;1.00;;;;;;4976481;28;20639;-68
2021/09/22 09:11:38;;;;;;;0.73;0.73;;;18.00;1.00;;;;;;4976567;28;20496;-69
2021/09/22 09:14:07;;;;;;;1.03;0.83;;;17.90;1.00;;;;;;4977375;28;20891;-69
2021/09/22 09:16:38;;;;;;;0.40;0.20;;;17.80;1.00;;;;;;4977203;28;20816;-69
2021/09/22 09:19:16;;;;;;;0.77;0.50;;;17.80;1.00;;;;;;4977335;28;20434;-69
2021/09/22 09:21:58;;;;;;;0.40;0.20;;;18.00;1.00;;;;;;4977302;28;20505;-69
2021/09/22 09:24:36;;;;;;;0.70;0.60;;;18.20;1.00;;;;;;4977075;28;20804;-69
2021/09/22 09:27:04;;;;;;;1.23;1.13;;;18.10;1.00;;;;;;4976836;28;20510;-69
2021/09/22 09:29:30;;;;;;;0.87;0.60;;;18.20;1.00;;;;;;4976835;28;20430;-69
2021/09/22 09:32:15;;;;;;;0.80;0.50;;;18.30;1.00;;;;;;4976784;28;20422;-69
2021/09/22 09:34:56;;;;;;;1.83;1.43;;;18.40;1.00;;;;;;4976834;28;20179;-69
2021/09/22 09:37:48;;;;;;;0.50;0.20;;;18.60;1.00;;;;;;4976651;28;20427;-69
2021/09/22 09:40:22;;;;;;;0.40;0.20;;;18.60;1.00;;;;;;4976820;28;20435;-68
2021/09/22 09:42:50;;;;;;;1.13;1.03;;;18.20;1.00;;;;;;4994380;28;20776;-69
2021/09/22 09:45:21;;;;;;;0.40;0.23;;;18.00;1.00;;;;;;4996903;28;20519;-69
2021/09/22 09:48:09;;;;;;;2.30;0.90;;;18.10;1.00;;;;;;4996130;28;20444;-69
2021/09/22 09:50:58;;;;;;;1.87;1.13;;;18.10;1.00;;;;;;4996087;28;20546;-67
2021/09/22 09:53:27;;;;;;;1.03;0.73;;;18.00;1.00;;;;;;4996092;28;20414;-68
2021/09/22 09:55:56;;;;;;;2.23;1.57;;;17.80;1.00;;;;;;4996405;28;20513;-67
2021/09/22 09:58:22;;;;;;;2.30;0.57;;;17.80;1.00;;;;;;4995633;28;20772;-66
2021/09/22 10:00:50;;;;;;;1.43;1.07;;;17.80;1.00;;;;;;4996463;28;20444;-67
2021/09/22 10:03:22;;;;;;;0.40;0.20;;;17.90;1.00;;;;;;4995799;28;20480;-66
2021/09/22 10:05:51;;;;;;;2.17;1.23;;;18.00;1.00;;;;;;4996334;28;20964;-69
2021/09/22 10:08:18;;;;;;;1.23;1.13;;;18.00;1.00;;;;;;4994850;28;20772;-66
2021/09/22 10:10:46;;;;;;;0.40;0.10;;;18.30;1.00;;;;;;4995695;28;20437;-67
2021/09/22 10:13:14;;;;;;;1.20;0.90;;;18.50;1.00;;;;;;4996219;28;20763;-67
2021/09/22 10:15:41;;;;;;;0.40;0.10;;;18.60;1.00;;;;;;4994700;28;20433;-66
2021/09/22 10:18:09;;;;;;;0.50;0.20;;;18.60;1.00;;;;;;4994463;28;20438;-66
2021/09/22 10:20:41;;;;;;;1.33;0.80;;;18.70;99.90;;;;;;4995801;28;20754;-66
2021/09/22 10:23:08;;;;;;;0.40;0.20;;;18.30;1.00;;;;;;4995741;28;20879;-66
2021/09/22 10:25:34;;;;;;;0.40;0.27;;;18.60;1.00;;;;;;4995337;28;20469;-66
2021/09/22 10:28:01;;;;;;;1.23;1.10;;;18.60;1.00;;;;;;4995602;28;20426;-67
2021/09/22 10:30:44;;;;;;;0.70;0.70;;;18.60;99.90;;;;;;4995623;28;20494;-69
2021/09/22 10:33:42;;;;;;;0.40;0.20;;;18.50;99.90;;;;;;4995291;28;20448;-69
2021/09/22 10:36:08;;;;;;;3.73;1.07;;;18.70;1.00;;;;;;4991363;28;20453;-67
2021/09/22 10:38:40;;;;;;;0.50;0.20;;;18.80;99.90;;;;;;4994254;28;20426;-67
2021/09/22 10:41:07;;;;;;;0.60;0.40;;;18.50;1.00;;;;;;4995457;28;20186;-66
2021/09/22 10:43:39;;;;;;;2.10;0.60;;;18.30;1.00;;;;;;4994932;28;20468;-69
2021/09/22 10:46:10;;;;;;;0.50;0.33;;;18.40;99.90;;;;;;4994924;28;20432;-69
2021/09/22 10:48:54;;;;;;;5.30;2.13;;;18.30;1.00;;;;;;4995259;28;20456;-67
2021/09/22 10:51:42;;;;;;;0.50;0.30;;;18.00;99.90;;;;;;4995110;28;20429;-65
2021/09/22 10:54:14;;;;;;;0.40;0.20;;;18.10;99.90;;;;;;4995017;28;20436;-68
2021/09/22 10:56:52;;;;;;;1.63;1.53;;;18.10;99.90;;;;;;4993634;28;20493;-68
2021/09/22 10:59:25;;;;;;;0.40;0.20;;;18.10;99.90;;;;;;4993676;28;20457;-66
2021/09/22 11:01:51;;;;;;;0.40;0.20;;;18.40;99.90;;;;;;4995002;28;20509;-66
2021/09/22 11:04:17;;;;;;;16.33;1.90;;;18.40;99.90;;;;;;4994736;28;21006;-66
2021/09/22 11:06:43;;;;;;;0.80;0.57;;;18.50;1.00;;;;;;4994775;28;20226;-67
2021/09/22 11:09:21;;;;;;;0.40;0.10;;;18.30;34.90;;;;;;4993620;28;20457;-66
2021/09/22 11:11:56;;;;;;;1.00;0.80;;;18.60;1.00;;;;;;4994388;28;20198;-67
2021/09/22 11:14:33;;;;;;;0.40;0.10;;;19.00;99.90;;;;;;4993582;28;20469;-67
2021/09/22 11:17:03;;;;;;;0.50;0.30;;;18.80;99.90;;;;;;4994350;28;20511;-67
2021/09/22 11:19:29;;;;;;;2.07;0.57;;;18.90;1.00;;;;;;4994744;28;20437;-69
2021/09/22 11:21:56;;;;;;;0.83;0.80;;;18.80;1.00;;;;;;4994597;28;20782;-67
2021/09/22 11:24:28;;;;;;;0.77;0.63;;;18.90;1.00;;;;;;4994734;28;20476;-68
2021/09/22 11:26:57;;;;;;;0.40;0.20;;;18.80;99.90;;;;;;4994410;28;20450;-68
2021/09/22 11:29:47;;;;;;;0.40;0.20;;;18.60;1.00;;;;;;4994591;28;20895;-68
2021/09/22 11:32:43;;;;;;;0.40;0.10;;;18.30;1.00;;;;;;4993383;28;20456;-68
2021/09/22 11:35:12;;;;;;;0.50;0.30;;;18.40;1.00;;;;;;4994610;28;20446;-66
2021/09/22 11:37:43;;;;;;;0.40;0.20;;;18.60;99.90;;;;;;4993924;28;20516;-65
2021/09/22 11:40:18;;;;;;;0.40;0.20;;;19.10;1.00;;;;;;4986953;28;20467;-68
2021/09/22 11:43:06;;;;;;;1.97;1.60;;;19.20;99.90;;;;;;4993111;28;20433;-69
2021/09/22 11:45:46;;;;;;;1.53;1.43;;;19.30;50.60;;;;;;4994306;28;20548;-70
2021/09/22 11:48:14;;;;;;;0.60;0.43;;;18.90;13.70;;;;;;4991798;28;20459;-67
2021/09/22 11:50:47;;;;;;;1.13;0.50;;;18.90;1.00;;;;;;4973170;28;20457;-71
2021/09/22 11:53:16;;;;;;;0.40;0.20;;;19.10;99.90;;;;;;4974694;28;20442;-70
2021/09/22 11:55:45;;;;;;;0.40;0.20;;;19.50;99.90;;;;;;4973577;28;20758;-68
2021/09/22 11:58:13;;;;;;;2.73;0.87;;;19.70;99.90;;;;;;4988513;28;20457;-67
2021/09/22 12:00:40;;;;;;;0.40;0.20;;;19.80;99.90;;;;;;4994335;28;20828;-67
2021/09/22 12:03:08;;;;;;;0.40;0.20;;;19.60;1.00;;;;;;4996433;28;20457;-69
2021/09/22 12:05:42;;;;;;;1.20;0.60;;;19.90;99.90;;;;;;4992331;28;20473;-70
2021/09/22 12:08:09;;;;;;;25.00;3.03;;;19.80;99.90;;;;;;4978524;28;20903;-69
2021/09/22 12:10:40;;;;;;;0.40;0.20;;;19.70;99.90;;;;;;4978155;28;20433;-69
2021/09/22 12:13:06;;;;;;;0.83;0.40;;;19.90;99.90;;;;;;4978463;28;20427;-67
2021/09/22 12:15:33;;;;;;;0.50;0.30;;;19.80;1.00;;;;;;4994179;28;20449;-70
2021/09/22 12:18:00;;;;;;;0.80;0.43;;;19.30;1.00;;;;;;4997081;28;20190;-70
2021/09/22 12:20:28;;;;;;;0.60;0.40;;;19.00;25.80;;;;;;4998095;28;20880;-69
2021/09/22 12:23:02;;;;;;;0.40;0.20;;;19.00;1.00;;;;;;4990594;28;20442;-67
2021/09/22 12:25:29;;;;;;;0.60;0.40;;;19.20;1.00;;;;;;4976781;28;20470;-69
2021/09/22 12:27:54;;;;;;;0.50;0.27;;;19.30;99.90;;;;;;4978108;28;20437;-67
2021/09/22 12:30:33;;;;;;;2.30;0.83;;;19.20;1.00;;;;;;4977917;28;20430;-67
2021/09/22 12:33:06;;;;;;;0.60;0.50;;;19.00;1.00;;;;;;4977972;28;20430;-70
2021/09/22 12:35:38;;;;;;;0.40;0.20;;;19.10;99.90;;;;;;4977862;28;20431;-70
2021/09/22 12:38:06;;;;;;;0.60;0.50;;;19.10;99.90;;;;;;4977797;28;20434;-68
2021/09/22 12:40:42;;;;;;;0.40;0.20;;;19.10;1.00;;;;;;4977809;28;20434;-69
2021/09/22 12:43:29;;;;;;;0.40;0.20;;;19.50;1.00;;;;;;4977895;28;20441;-70
2021/09/22 12:46:11;;;;;;;0.40;0.20;;;19.80;99.90;;;;;;4977543;28;20477;-70
2021/09/22 12:48:38;;;;;;;0.40;0.20;;;20.00;1.00;;;;;;4985729;28;20441;-67
2021/09/22 12:51:18;;;;;;;0.60;0.40;;;20.10;1.00;;;;;;4997487;28;20434;-68
2021/09/22 12:53:44;;;;;;;0.40;0.10;;;20.30;99.90;;;;;;4997060;28;20514;-70
2021/09/22 12:56:12;;;;;;;0.40;0.20;;;20.30;1.00;;;;;;4996659;28;20442;-70